Terminal Aerodrome Forecast
Issued by NWS Mt. Holly, NJ

Home | Current Version | Previous Version | Text Only | Print | Product List | Glossary On
Versions: 1 2 3 4 5 6 7 8 9 10 11 12 13 14 15 16 17 18 19 20 21 22 23 24 25 26 27
817
FTUS41 KPHI 242358 AAB
TAFPHL
TAF AMD
KPHL 242358Z 2500/2606 22010KT P6SM FEW070 OVC250
     FM250200 21005KT P6SM SCT070 OVC250 WS020/24039KT
     FM250900 24008KT P6SM BKN045
     FM252100 32009KT P6SM OVC040 PROB30 2521/2523 4SM -SHRA OVC020
     FM252300 03008KT 3SM -SHRA OVC020
     FM260000 07012KT 4SM BR OVC008 PROB30 2600/2604 2SM -SHRA BR
      OVC003=

USA.gov is the U.S. government's official web portal to all federal, state and local government web resources and services.